sensor_id;sensor_type;location;lat;lon;timestamp;pressure;altitude;pressure_sealevel;temperature;humidity
73103;BME280;61294;65.988;29.172;2022-07-23T00:02:09;97993.75;;;13.75;72.03
73103;BME280;61294;65.988;29.172;2022-07-23T00:04:35;98009.72;;;13.71;72.40
73103;BME280;61294;65.988;29.172;2022-07-23T00:07:00;98013.34;;;13.68;72.47
73103;BME280;61294;65.988;29.172;2022-07-23T00:09:26;97965.44;;;13.46;72.17
73103;BME280;61294;65.988;29.172;2022-07-23T00:11:53;97980.22;;;13.53;72.36
73103;BME280;61294;65.988;29.172;2022-07-23T00:14:19;97988.28;;;13.49;72.66
73103;BME280;61294;65.988;29.172;2022-07-23T00:16:45;97998.06;;;13.45;72.53
73103;BME280;61294;65.988;29.172;2022-07-23T00:19:10;97967.81;;;13.21;73.07
73103;BME280;61294;65.988;29.172;2022-07-23T00:21:36;97980.91;;;13.27;73.39
73103;BME280;61294;65.988;29.172;2022-07-23T00:24:02;97999.03;;;13.42;72.93
73103;BME280;61294;65.988;29.172;2022-07-23T00:26:27;97982.41;;;13.37;73.12
73103;BME280;61294;65.988;29.172;2022-07-23T00:28:53;98006.00;;;13.45;72.55
73103;BME280;61294;65.988;29.172;2022-07-23T00:31:19;98011.34;;;13.43;72.55
73103;BME280;61294;65.988;29.172;2022-07-23T00:33:45;97978.22;;;13.28;72.93
73103;BME280;61294;65.988;29.172;2022-07-23T00:36:10;98008.63;;;13.46;73.38
73103;BME280;61294;65.988;29.172;2022-07-23T00:38:36;98010.28;;;13.51;73.73
73103;BME280;61294;65.988;29.172;2022-07-23T00:41:01;97991.13;;;13.41;74.13
73103;BME280;61294;65.988;29.172;2022-07-23T00:43:27;97984.34;;;13.29;73.95
73103;BME280;61294;65.988;29.172;2022-07-23T00:45:53;97976.66;;;13.21;73.91
73103;BME280;61294;65.988;29.172;2022-07-23T00:48:18;98001.38;;;13.19;74.24
73103;BME280;61294;65.988;29.172;2022-07-23T00:50:44;97989.41;;;13.04;74.89
73103;BME280;61294;65.988;29.172;2022-07-23T00:53:10;98019.03;;;13.18;74.97
73103;BME280;61294;65.988;29.172;2022-07-23T00:55:36;97987.75;;;13.00;74.67
73103;BME280;61294;65.988;29.172;2022-07-23T00:58:02;97985.81;;;13.06;74.87
73103;BME280;61294;65.988;29.172;2022-07-23T01:00:28;98011.06;;;13.20;74.66
73103;BME280;61294;65.988;29.172;2022-07-23T01:02:54;98012.84;;;13.18;74.76
73103;BME280;61294;65.988;29.172;2022-07-23T01:05:20;97977.22;;;12.98;74.77
73103;BME280;61294;65.988;29.172;2022-07-23T01:07:50;97974.47;;;13.03;74.92
73103;BME280;61294;65.988;29.172;2022-07-23T01:10:16;97973.53;;;13.04;75.42
73103;BME280;61294;65.988;29.172;2022-07-23T01:13:01;97976.91;;;13.10;75.05
73103;BME280;61294;65.988;29.172;2022-07-23T01:15:27;97990.00;;;13.15;75.11
73103;BME280;61294;65.988;29.172;2022-07-23T01:17:53;97984.84;;;13.10;75.23
73103;BME280;61294;65.988;29.172;2022-07-23T01:20:19;97967.59;;;12.95;74.65
73103;BME280;61294;65.988;29.172;2022-07-23T01:22:45;97973.75;;;12.96;74.65
73103;BME280;61294;65.988;29.172;2022-07-23T01:25:11;97997.66;;;12.91;74.68
73103;BME280;61294;65.988;29.172;2022-07-23T01:27:37;97996.03;;;12.86;74.57
73103;BME280;61294;65.988;29.172;2022-07-23T01:30:03;97993.22;;;12.92;74.64
73103;BME280;61294;65.988;29.172;2022-07-23T01:32:29;97979.31;;;12.84;74.62
73103;BME280;61294;65.988;29.172;2022-07-23T01:34:55;97997.53;;;12.96;74.31
73103;BME280;61294;65.988;29.172;2022-07-23T01:37:20;97963.38;;;12.88;74.44
73103;BME280;61294;65.988;29.172;2022-07-23T01:39:46;97975.53;;;12.95;74.04
73103;BME280;61294;65.988;29.172;2022-07-23T01:42:11;97981.59;;;12.99;74.29
73103;BME280;61294;65.988;29.172;2022-07-23T01:44:37;97965.13;;;12.88;74.01
73103;BME280;61294;65.988;29.172;2022-07-23T01:47:03;97988.72;;;12.97;74.49
73103;BME280;61294;65.988;29.172;2022-07-23T01:49:28;97981.00;;;12.88;74.91
73103;BME280;61294;65.988;29.172;2022-07-23T01:51:54;97981.03;;;12.86;75.17
73103;BME280;61294;65.988;29.172;2022-07-23T01:54:32;97956.88;;;12.66;75.77
73103;BME280;61294;65.988;29.172;2022-07-23T01:56:59;97988.09;;;12.86;75.92
73103;BME280;61294;65.988;29.172;2022-07-23T01:59:25;97973.38;;;12.75;75.55
73103;BME280;61294;65.988;29.172;2022-07-23T02:01:51;97970.69;;;12.77;75.62
73103;BME280;61294;65.988;29.172;2022-07-23T02:04:18;97964.66;;;12.72;75.86
73103;BME280;61294;65.988;29.172;2022-07-23T02:06:44;97954.31;;;12.61;76.12
73103;BME280;61294;65.988;29.172;2022-07-23T02:09:09;97968.69;;;12.87;75.36
73103;BME280;61294;65.988;29.172;2022-07-23T02:11:35;97968.53;;;12.93;75.80
73103;BME280;61294;65.988;29.172;2022-07-23T02:14:01;97957.44;;;12.78;75.91
73103;BME280;61294;65.988;29.172;2022-07-23T02:16:26;97961.63;;;12.87;76.09
73103;BME280;61294;65.988;29.172;2022-07-23T02:18:52;97991.19;;;13.03;76.32
73103;BME280;61294;65.988;29.172;2022-07-23T02:21:17;97980.91;;;12.91;76.24
73103;BME280;61294;65.988;29.172;2022-07-23T02:23:43;97988.72;;;12.97;76.63
73103;BME280;61294;65.988;29.172;2022-07-23T02:26:09;97980.56;;;13.05;76.60
73103;BME280;61294;65.988;29.172;2022-07-23T02:28:34;97947.53;;;12.88;76.17
73103;BME280;61294;65.988;29.172;2022-07-23T02:31:00;97987.31;;;13.18;75.92
73103;BME280;61294;65.988;29.172;2022-07-23T02:33:25;97976.69;;;13.20;76.21
73103;BME280;61294;65.988;29.172;2022-07-23T02:35:51;97943.25;;;13.17;76.05
73103;BME280;61294;65.988;29.172;2022-07-23T02:38:17;97951.94;;;13.21;76.15
73103;BME280;61294;65.988;29.172;2022-07-23T02:40:42;97963.81;;;13.40;76.14
73103;BME280;61294;65.988;29.172;2022-07-23T02:43:08;97975.97;;;13.48;75.98
73103;BME280;61294;65.988;29.172;2022-07-23T02:45:34;97971.22;;;13.26;76.79
73103;BME280;61294;65.988;29.172;2022-07-23T02:47:59;97958.75;;;12.97;77.47
73103;BME280;61294;65.988;29.172;2022-07-23T02:50:25;97969.84;;;13.11;77.99
73103;BME280;61294;65.988;29.172;2022-07-23T02:52:50;97933.53;;;13.18;77.24
73103;BME280;61294;65.988;29.172;2022-07-23T02:55:16;97957.63;;;13.41;76.99
73103;BME280;61294;65.988;29.172;2022-07-23T02:57:42;97944.31;;;13.44;76.88
73103;BME280;61294;65.988;29.172;2022-07-23T03:00:09;97939.16;;;13.40;76.50
73103;BME280;61294;65.988;29.172;2022-07-23T03:02:35;97967.84;;;13.54;76.49
73103;BME280;61294;65.988;29.172;2022-07-23T03:05:01;97952.63;;;13.29;77.37
73103;BME280;61294;65.988;29.172;2022-07-23T03:07:26;97965.66;;;13.38;77.39
73103;BME280;61294;65.988;29.172;2022-07-23T03:09:52;97947.91;;;13.42;77.23
73103;BME280;61294;65.988;29.172;2022-07-23T03:12:17;97967.56;;;13.64;76.81
73103;BME280;61294;65.988;29.172;2022-07-23T03:14:43;97935.34;;;13.50;76.60
73103;BME280;61294;65.988;29.172;2022-07-23T03:17:09;97963.69;;;13.76;76.40
73103;BME280;61294;65.988;29.172;2022-07-23T03:19:35;97962.59;;;13.84;76.21
73103;BME280;61294;65.988;29.172;2022-07-23T03:22:02;97941.56;;;13.79;76.44
73103;BME280;61294;65.988;29.172;2022-07-23T03:24:27;97936.06;;;13.87;75.99
73103;BME280;61294;65.988;29.172;2022-07-23T03:27:11;97941.72;;;14.04;75.72
73103;BME280;61294;65.988;29.172;2022-07-23T03:29:37;97956.47;;;14.13;75.51
73103;BME280;61294;65.988;29.172;2022-07-23T03:32:03;97941.38;;;14.15;75.44
73103;BME280;61294;65.988;29.172;2022-07-23T03:34:29;97951.38;;;14.35;75.56
73103;BME280;61294;65.988;29.172;2022-07-23T03:36:55;97966.41;;;14.35;75.51
73103;BME280;61294;65.988;29.172;2022-07-23T03:39:20;97951.13;;;14.43;75.40
73103;BME280;61294;65.988;29.172;2022-07-23T03:41:46;97924.00;;;14.35;75.05
73103;BME280;61294;65.988;29.172;2022-07-23T03:44:11;97959.41;;;14.60;74.78
73103;BME280;61294;65.988;29.172;2022-07-23T03:46:37;97953.19;;;14.63;75.11
73103;BME280;61294;65.988;29.172;2022-07-23T03:49:03;97928.47;;;14.62;74.74
73103;BME280;61294;65.988;29.172;2022-07-23T03:51:28;97947.38;;;14.78;74.78
73103;BME280;61294;65.988;29.172;2022-07-23T03:53:54;97949.03;;;14.82;74.55
73103;BME280;61294;65.988;29.172;2022-07-23T03:56:21;97946.25;;;14.86;73.94
73103;BME280;61294;65.988;29.172;2022-07-23T03:58:47;97946.22;;;14.87;73.86
73103;BME280;61294;65.988;29.172;2022-07-23T04:01:13;97948.97;;;14.84;73.02
73103;BME280;61294;65.988;29.172;2022-07-23T04:03:39;97942.66;;;14.88;73.21
73103;BME280;61294;65.988;29.172;2022-07-23T04:06:05;97931.88;;;14.93;73.85
73103;BME280;61294;65.988;29.172;2022-07-23T04:08:31;97909.81;;;14.92;73.81
73103;BME280;61294;65.988;29.172;2022-07-23T04:10:57;97930.69;;;15.01;74.22
73103;BME280;61294;65.988;29.172;2022-07-23T04:13:22;97931.53;;;15.02;73.94
73103;BME280;61294;65.988;29.172;2022-07-23T04:15:48;97926.56;;;14.93;73.65
73103;BME280;61294;65.988;29.172;2022-07-23T04:18:15;97927.47;;;14.92;73.73
73103;BME280;61294;65.988;29.172;2022-07-23T04:20:43;97930.47;;;14.82;73.55
73103;BME280;61294;65.988;29.172;2022-07-23T04:23:09;97927.97;;;14.78;73.82
73103;BME280;61294;65.988;29.172;2022-07-23T04:25:35;97933.56;;;14.69;73.41
73103;BME280;61294;65.988;29.172;2022-07-23T04:28:01;97928.38;;;14.65;73.73
73103;BME280;61294;65.988;29.172;2022-07-23T04:30:26;97916.19;;;14.58;74.04
73103;BME280;61294;65.988;29.172;2022-07-23T04:32:52;97931.72;;;14.71;73.98
73103;BME280;61294;65.988;29.172;2022-07-23T04:35:18;97943.91;;;14.76;73.30
73103;BME280;61294;65.988;29.172;2022-07-23T04:37:43;97927.19;;;14.74;73.72
73103;BME280;61294;65.988;29.172;2022-07-23T04:40:10;97941.63;;;14.92;74.29
73103;BME280;61294;65.988;29.172;2022-07-23T04:42:36;97923.88;;;14.94;72.96
73103;BME280;61294;65.988;29.172;2022-07-23T04:45:02;97920.91;;;15.04;72.42
73103;BME280;61294;65.988;29.172;2022-07-23T04:47:29;97941.56;;;15.21;72.42
73103;BME280;61294;65.988;29.172;2022-07-23T04:49:56;97944.78;;;15.29;70.98
73103;BME280;61294;65.988;29.172;2022-07-23T04:52:21;97925.84;;;15.40;70.61
73103;BME280;61294;65.988;29.172;2022-07-23T04:54:47;97945.38;;;15.62;70.06
73103;BME280;61294;65.988;29.172;2022-07-23T04:57:13;97932.41;;;15.78;70.26
73103;BME280;61294;65.988;29.172;2022-07-23T04:59:39;97944.91;;;16.00;69.72
73103;BME280;61294;65.988;29.172;2022-07-23T05:02:05;97939.41;;;16.04;69.64
73103;BME280;61294;65.988;29.172;2022-07-23T05:04:30;97939.59;;;16.00;69.04
73103;BME280;61294;65.988;29.172;2022-07-23T05:06:57;97909.91;;;15.88;68.62
73103;BME280;61294;65.988;29.172;2022-07-23T05:09:23;97942.13;;;16.03;67.59
73103;BME280;61294;65.988;29.172;2022-07-23T05:11:49;97935.09;;;16.02;65.91
73103;BME280;61294;65.988;29.172;2022-07-23T05:14:15;97944.84;;;16.01;66.56
73103;BME280;61294;65.988;29.172;2022-07-23T05:16:40;97943.28;;;15.96;66.33
73103;BME280;61294;65.988;29.172;2022-07-23T05:19:06;97939.00;;;15.92;66.42
73103;BME280;61294;65.988;29.172;2022-07-23T05:21:32;97915.63;;;15.78;64.27
73103;BME280;61294;65.988;29.172;2022-07-23T05:23:58;97937.28;;;15.91;64.54
73103;BME280;61294;65.988;29.172;2022-07-23T05:26:24;97942.03;;;15.82;64.38
73103;BME280;61294;65.988;29.172;2022-07-23T05:28:50;97937.34;;;15.89;64.01
73103;BME280;61294;65.988;29.172;2022-07-23T05:31:16;97932.53;;;15.99;64.04
73103;BME280;61294;65.988;29.172;2022-07-23T05:33:42;97935.38;;;15.94;63.85
73103;BME280;61294;65.988;29.172;2022-07-23T05:36:08;97933.88;;;16.11;62.57
73103;BME280;61294;65.988;29.172;2022-07-23T05:38:34;97913.72;;;16.05;63.06
73103;BME280;61294;65.988;29.172;2022-07-23T05:41:00;97924.38;;;16.27;62.13
73103;BME280;61294;65.988;29.172;2022-07-23T05:43:26;97918.06;;;16.30;61.95
73103;BME280;61294;65.988;29.172;2022-07-23T05:45:52;97921.50;;;16.33;60.75
73103;BME280;61294;65.988;29.172;2022-07-23T05:48:17;97913.78;;;16.70;60.06
73103;BME280;61294;65.988;29.172;2022-07-23T05:50:43;97906.88;;;16.88;60.12
73103;BME280;61294;65.988;29.172;2022-07-23T05:53:09;97904.56;;;17.01;59.23
73103;BME280;61294;65.988;29.172;2022-07-23T05:55:34;97907.03;;;17.05;58.60
73103;BME280;61294;65.988;29.172;2022-07-23T05:58:00;97903.31;;;17.10;54.47
73103;BME280;61294;65.988;29.172;2022-07-23T06:00:27;97905.41;;;17.01;54.08
73103;BME280;61294;65.988;29.172;2022-07-23T06:02:53;97900.00;;;16.82;55.33
73103;BME280;61294;65.988;29.172;2022-07-23T06:05:19;97905.19;;;16.85;53.55
73103;BME280;61294;65.988;29.172;2022-07-23T06:07:44;97913.94;;;17.10;56.00
73103;BME280;61294;65.988;29.172;2022-07-23T06:10:10;97865.84;;;17.14;54.89
73103;BME280;61294;65.988;29.172;2022-07-23T06:12:36;97906.97;;;17.28;56.17
73103;BME280;61294;65.988;29.172;2022-07-23T06:15:03;97881.81;;;17.14;54.66
73103;BME280;61294;65.988;29.172;2022-07-23T06:17:29;97912.94;;;17.33;54.05
73103;BME280;61294;65.988;29.172;2022-07-23T06:19:55;97898.63;;;17.35;54.95
73103;BME280;61294;65.988;29.172;2022-07-23T06:22:21;97880.16;;;17.12;54.40
73103;BME280;61294;65.988;29.172;2022-07-23T06:24:48;97864.53;;;17.04;54.69
73103;BME280;61294;65.988;29.172;2022-07-23T06:27:14;97902.97;;;17.38;53.14
73103;BME280;61294;65.988;29.172;2022-07-23T06:29:39;97891.13;;;17.45;51.79
73103;BME280;61294;65.988;29.172;2022-07-23T06:32:06;97892.63;;;17.51;52.13
73103;BME280;61294;65.988;29.172;2022-07-23T06:34:32;97889.22;;;17.47;52.40
73103;BME280;61294;65.988;29.172;2022-07-23T06:36:59;97834.13;;;17.30;53.61
73103;BME280;61294;65.988;29.172;2022-07-23T06:39:24;97874.53;;;17.59;53.42
73103;BME280;61294;65.988;29.172;2022-07-23T06:41:50;97856.66;;;17.42;52.55
73103;BME280;61294;65.988;29.172;2022-07-23T06:44:16;97870.59;;;17.47;51.79
73103;BME280;61294;65.988;29.172;2022-07-23T06:46:42;97857.25;;;17.49;51.24
73103;BME280;61294;65.988;29.172;2022-07-23T06:49:08;97843.41;;;17.40;49.31
73103;BME280;61294;65.988;29.172;2022-07-23T06:51:34;97851.59;;;17.36;50.85
73103;BME280;61294;65.988;29.172;2022-07-23T06:54:00;97865.00;;;17.53;51.53
73103;BME280;61294;65.988;29.172;2022-07-23T06:56:26;97843.94;;;17.49;50.80
73103;BME280;61294;65.988;29.172;2022-07-23T06:58:52;97860.91;;;17.65;50.88
73103;BME280;61294;65.988;29.172;2022-07-23T07:01:18;97858.84;;;17.72;50.55
73103;BME280;61294;65.988;29.172;2022-07-23T07:03:44;97851.91;;;17.87;51.39
73103;BME280;61294;65.988;29.172;2022-07-23T07:06:10;97813.72;;;17.69;50.45
73103;BME280;61294;65.988;29.172;2022-07-23T07:08:35;97843.94;;;17.87;51.04
73103;BME280;61294;65.988;29.172;2022-07-23T07:11:01;97793.47;;;17.46;50.85
73103;BME280;61294;65.988;29.172;2022-07-23T07:13:28;97837.59;;;17.70;48.34
73103;BME280;61294;65.988;29.172;2022-07-23T07:15:53;97825.44;;;17.84;49.94
73103;BME280;61294;65.988;29.172;2022-07-23T07:18:19;97834.03;;;17.90;48.72
73103;BME280;61294;65.988;29.172;2022-07-23T07:20:44;97811.81;;;17.90;49.61
73103;BME280;61294;65.988;29.172;2022-07-23T07:23:10;97833.50;;;18.01;50.42
73103;BME280;61294;65.988;29.172;2022-07-23T07:25:36;97821.69;;;17.88;49.89
73103;BME280;61294;65.988;29.172;2022-07-23T07:28:01;97836.09;;;17.84;47.46
73103;BME280;61294;65.988;29.172;2022-07-23T07:30:27;97837.81;;;17.85;50.28
73103;BME280;61294;65.988;29.172;2022-07-23T07:32:52;97840.13;;;17.73;49.21
73103;BME280;61294;65.988;29.172;2022-07-23T07:35:18;97842.56;;;17.78;49.47
73103;BME280;61294;65.988;29.172;2022-07-23T07:37:44;97835.47;;;17.79;50.09
73103;BME280;61294;65.988;29.172;2022-07-23T07:40:09;97834.88;;;18.10;50.11
73103;BME280;61294;65.988;29.172;2022-07-23T07:42:46;97799.19;;;18.13;49.18
73103;BME280;61294;65.988;29.172;2022-07-23T07:45:12;97840.19;;;18.46;49.12
73103;BME280;61294;65.988;29.172;2022-07-23T07:47:38;97846.91;;;18.73;49.18
73103;BME280;61294;65.988;29.172;2022-07-23T07:50:03;97842.63;;;18.51;48.11
73103;BME280;61294;65.988;29.172;2022-07-23T07:52:29;97825.38;;;18.41;47.73
73103;BME280;61294;65.988;29.172;2022-07-23T07:54:55;97845.09;;;18.56;47.59
73103;BME280;61294;65.988;29.172;2022-07-23T07:57:20;97844.75;;;18.44;47.35
73103;BME280;61294;65.988;29.172;2022-07-23T07:59:46;97845.56;;;18.64;47.85
73103;BME280;61294;65.988;29.172;2022-07-23T08:02:11;97836.78;;;18.62;46.24
73103;BME280;61294;65.988;29.172;2022-07-23T08:04:37;97841.72;;;18.70;46.48
73103;BME280;61294;65.988;29.172;2022-07-23T08:07:03;97840.78;;;18.71;44.83
73103;BME280;61294;65.988;29.172;2022-07-23T08:09:29;97839.03;;;18.70;45.52
73103;BME280;61294;65.988;29.172;2022-07-23T08:11:54;97851.31;;;19.09;47.36
73103;BME280;61294;65.988;29.172;2022-07-23T08:14:21;97820.06;;;18.76;45.18
73103;BME280;61294;65.988;29.172;2022-07-23T08:16:47;97839.09;;;18.87;46.46
73103;BME280;61294;65.988;29.172;2022-07-23T08:19:12;97848.75;;;18.90;47.62
73103;BME280;61294;65.988;29.172;2022-07-23T08:21:38;97844.50;;;19.03;46.81
73103;BME280;61294;65.988;29.172;2022-07-23T08:24:04;97840.50;;;18.94;45.24
73103;BME280;61294;65.988;29.172;2022-07-23T08:26:29;97846.50;;;18.80;45.42
73103;BME280;61294;65.988;29.172;2022-07-23T08:28:55;97848.81;;;19.06;46.55
73103;BME280;61294;65.988;29.172;2022-07-23T08:31:20;97845.34;;;19.04;48.39
73103;BME280;61294;65.988;29.172;2022-07-23T08:33:46;97832.59;;;18.93;47.71
73103;BME280;61294;65.988;29.172;2022-07-23T08:36:11;97845.50;;;18.83;45.86
73103;BME280;61294;65.988;29.172;2022-07-23T08:38:37;97851.56;;;18.87;48.16
73103;BME280;61294;65.988;29.172;2022-07-23T08:41:03;97853.19;;;18.72;46.57
73103;BME280;61294;65.988;29.172;2022-07-23T08:43:31;97858.19;;;18.60;46.94
73103;BME280;61294;65.988;29.172;2022-07-23T08:45:59;97824.13;;;18.48;47.87
73103;BME280;61294;65.988;29.172;2022-07-23T08:48:27;97851.28;;;18.74;47.99
73103;BME280;61294;65.988;29.172;2022-07-23T08:50:57;97838.91;;;18.73;47.99
73103;BME280;61294;65.988;29.172;2022-07-23T08:53:25;97850.38;;;18.92;47.96
73103;BME280;61294;65.988;29.172;2022-07-23T08:55:53;97854.00;;;18.91;48.29
73103;BME280;61294;65.988;29.172;2022-07-23T08:58:19;97854.34;;;18.66;46.55
73103;BME280;61294;65.988;29.172;2022-07-23T09:00:45;97834.50;;;18.54;45.81
73103;BME280;61294;65.988;29.172;2022-07-23T09:03:25;97847.84;;;18.54;45.83
73103;BME280;61294;65.988;29.172;2022-07-23T09:05:52;97860.53;;;18.67;47.88
73103;BME280;61294;65.988;29.172;2022-07-23T09:08:22;97815.66;;;18.57;47.02
73103;BME280;61294;65.988;29.172;2022-07-23T09:10:59;97836.69;;;18.63;47.17
73103;BME280;61294;65.988;29.172;2022-07-23T09:13:29;97826.63;;;18.51;47.33
73103;BME280;61294;65.988;29.172;2022-07-23T09:16:05;97824.69;;;18.55;48.21
73103;BME280;61294;65.988;29.172;2022-07-23T09:18:37;97824.53;;;18.40;47.56
73103;BME280;61294;65.988;29.172;2022-07-23T09:23:39;97820.84;;;18.43;49.05
73103;BME280;61294;65.988;29.172;2022-07-23T09:26:30;97804.66;;;18.28;47.90
73103;BME280;61294;65.988;29.172;2022-07-23T09:29:02;97834.09;;;18.44;47.04
73103;BME280;61294;65.988;29.172;2022-07-23T09:34:10;97840.59;;;18.56;48.02
73103;BME280;61294;65.988;29.172;2022-07-23T09:36:37;97836.44;;;18.51;46.41
73103;BME280;61294;65.988;29.172;2022-07-23T09:39:03;97813.16;;;18.54;47.46
73103;BME280;61294;65.988;29.172;2022-07-23T09:41:42;97817.97;;;18.83;48.53
73103;BME280;61294;65.988;29.172;2022-07-23T09:44:13;97833.56;;;19.25;48.77
73103;BME280;61294;65.988;29.172;2022-07-23T09:46:39;97832.34;;;19.48;50.05
73103;BME280;61294;65.988;29.172;2022-07-23T09:49:20;97825.53;;;19.59;49.32
73103;BME280;61294;65.988;29.172;2022-07-23T09:51:55;97822.59;;;19.63;48.23
73103;BME280;61294;65.988;29.172;2022-07-23T09:54:38;97811.25;;;19.60;48.94
73103;BME280;61294;65.988;29.172;2022-07-23T09:57:07;97820.72;;;19.65;47.87
73103;BME280;61294;65.988;29.172;2022-07-23T09:59:36;97821.50;;;19.67;48.76
73103;BME280;61294;65.988;29.172;2022-07-23T10:02:04;97804.44;;;19.54;46.73
73103;BME280;61294;65.988;29.172;2022-07-23T10:04:31;97817.78;;;19.54;46.56
73103;BME280;61294;65.988;29.172;2022-07-23T10:07:03;97808.38;;;19.47;46.46
73103;BME280;61294;65.988;29.172;2022-07-23T10:09:34;97793.56;;;19.57;46.71
73103;BME280;61294;65.988;29.172;2022-07-23T10:12:03;97794.13;;;19.80;48.10
73103;BME280;61294;65.988;29.172;2022-07-23T10:14:49;97811.47;;;19.89;46.75
73103;BME280;61294;65.988;29.172;2022-07-23T10:17:17;97785.53;;;19.41;47.17
73103;BME280;61294;65.988;29.172;2022-07-23T10:19:43;97812.22;;;19.25;46.64
73103;BME280;61294;65.988;29.172;2022-07-23T10:22:12;97815.72;;;19.26;47.12
73103;BME280;61294;65.988;29.172;2022-07-23T10:24:50;97819.09;;;19.29;47.44
73103;BME280;61294;65.988;29.172;2022-07-23T10:30:16;97831.91;;;19.05;47.40
73103;BME280;61294;65.988;29.172;2022-07-23T10:38:18;97823.81;;;19.24;48.51
73103;BME280;61294;65.988;29.172;2022-07-23T10:41:03;97828.22;;;19.25;48.11
73103;BME280;61294;65.988;29.172;2022-07-23T10:43:29;97813.31;;;19.21;45.78
73103;BME280;61294;65.988;29.172;2022-07-23T10:45:56;97819.66;;;19.52;46.84
73103;BME280;61294;65.988;29.172;2022-07-23T10:48:41;97814.88;;;19.25;46.72
73103;BME280;61294;65.988;29.172;2022-07-23T10:51:13;97813.44;;;19.36;47.01
73103;BME280;61294;65.988;29.172;2022-07-23T10:53:56;97802.28;;;19.27;47.73
73103;BME280;61294;65.988;29.172;2022-07-23T10:59:13;97820.13;;;19.76;50.19
73103;BME280;61294;65.988;29.172;2022-07-23T11:01:39;97808.50;;;19.77;49.95
73103;BME280;61294;65.988;29.172;2022-07-23T11:04:05;97818.53;;;20.06;49.14
73103;BME280;61294;65.988;29.172;2022-07-23T11:09:29;97821.09;;;20.23;48.94
73103;BME280;61294;65.988;29.172;2022-07-23T11:17:31;97817.44;;;19.60;46.40
73103;BME280;61294;65.988;29.172;2022-07-23T11:22:39;97817.84;;;19.19;47.60
73103;BME280;61294;65.988;29.172;2022-07-23T11:25:05;97823.91;;;19.23;48.76
73103;BME280;61294;65.988;29.172;2022-07-23T11:27:42;97817.06;;;19.51;48.78
73103;BME280;61294;65.988;29.172;2022-07-23T11:30:36;97819.16;;;19.45;47.16
73103;BME280;61294;65.988;29.172;2022-07-23T11:35:46;97801.06;;;19.66;48.11
73103;BME280;61294;65.988;29.172;2022-07-23T11:38:21;97814.19;;;19.71;49.50
73103;BME280;61294;65.988;29.172;2022-07-23T11:40:53;97804.88;;;19.78;46.92
73103;BME280;61294;65.988;29.172;2022-07-23T11:43:20;97820.78;;;19.81;47.01
73103;BME280;61294;65.988;29.172;2022-07-23T11:45:48;97816.78;;;19.73;47.36
73103;BME280;61294;65.988;29.172;2022-07-23T11:48:26;97820.16;;;19.92;48.86
73103;BME280;61294;65.988;29.172;2022-07-23T11:50:53;97808.34;;;19.80;47.38
73103;BME280;61294;65.988;29.172;2022-07-23T11:53:30;97815.25;;;20.00;46.74
73103;BME280;61294;65.988;29.172;2022-07-23T11:56:10;97795.22;;;20.08;48.78
73103;BME280;61294;65.988;29.172;2022-07-23T11:58:38;97817.31;;;20.27;45.70
73103;BME280;61294;65.988;29.172;2022-07-23T12:01:04;97810.13;;;20.44;44.35
73103;BME280;61294;65.988;29.172;2022-07-23T12:03:30;97807.34;;;20.45;46.19
73103;BME280;61294;65.988;29.172;2022-07-23T12:05:57;97822.69;;;20.74;44.67
73103;BME280;61294;65.988;29.172;2022-07-23T12:08:24;97785.34;;;20.40;44.67
73103;BME280;61294;65.988;29.172;2022-07-23T12:10:49;97775.41;;;19.96;41.99
73103;BME280;61294;65.988;29.172;2022-07-23T12:13:17;97797.69;;;20.43;42.58
73103;BME280;61294;65.988;29.172;2022-07-23T12:15:45;97812.63;;;20.47;45.89
73103;BME280;61294;65.988;29.172;2022-07-23T12:18:13;97815.88;;;20.68;45.89
73103;BME280;61294;65.988;29.172;2022-07-23T12:20:48;97818.19;;;20.58;44.80
73103;BME280;61294;65.988;29.172;2022-07-23T12:23:17;97804.41;;;21.11;43.68
73103;BME280;61294;65.988;29.172;2022-07-23T12:25:45;97802.13;;;21.48;44.48
73103;BME280;61294;65.988;29.172;2022-07-23T12:28:13;97793.75;;;21.96;42.07
73103;BME280;61294;65.988;29.172;2022-07-23T12:33:08;97778.13;;;23.49;39.53
73103;BME280;61294;65.988;29.172;2022-07-23T12:35:39;97803.19;;;24.60;39.11
73103;BME280;61294;65.988;29.172;2022-07-23T12:38:16;97779.56;;;24.64;35.97
73103;BME280;61294;65.988;29.172;2022-07-23T12:40:46;97788.03;;;30.84;31.04
73103;BME280;61294;65.988;29.172;2022-07-23T12:43:23;97780.19;;;30.99;29.04
73103;BME280;61294;65.988;29.172;2022-07-23T12:45:50;97787.53;;;30.62;30.25
73103;BME280;61294;65.988;29.172;2022-07-23T12:50:58;97784.72;;;29.81;30.32
73103;BME280;61294;65.988;29.172;2022-07-23T12:53:30;97780.31;;;34.40;24.94
73103;BME280;61294;65.988;29.172;2022-07-23T12:56:05;97793.28;;;35.99;20.66
73103;BME280;61294;65.988;29.172;2022-07-23T12:58:42;97791.00;;;35.72;21.69
73103;BME280;61294;65.988;29.172;2022-07-23T13:01:09;97785.50;;;34.58;22.02
73103;BME280;61294;65.988;29.172;2022-07-23T13:03:40;97771.66;;;32.75;23.07
73103;BME280;61294;65.988;29.172;2022-07-23T13:06:09;97784.09;;;33.18;24.94
73103;BME280;61294;65.988;29.172;2022-07-23T13:08:39;97779.28;;;29.90;25.71
73103;BME280;61294;65.988;29.172;2022-07-23T13:11:07;97760.78;;;27.61;30.37
73103;BME280;61294;65.988;29.172;2022-07-23T13:13:36;97798.09;;;26.17;30.91
73103;BME280;61294;65.988;29.172;2022-07-23T13:16:02;97798.63;;;25.55;34.40
73103;BME280;61294;65.988;29.172;2022-07-23T13:18:28;97778.63;;;25.91;32.91
73103;BME280;61294;65.988;29.172;2022-07-23T13:20:55;97765.94;;;26.26;31.59
73103;BME280;61294;65.988;29.172;2022-07-23T13:23:21;97788.34;;;25.37;32.07
73103;BME280;61294;65.988;29.172;2022-07-23T13:25:47;97784.91;;;24.53;33.22
73103;BME280;61294;65.988;29.172;2022-07-23T13:28:14;97768.47;;;24.20;34.15